Time;durP1;ratioP1;P1;durP2;ratioP2;P2;SDS_P1;SDS_P2;PMS_P1;PMS_P2;Temp;Humidity;BMP_temperature;BMP_pressure;BME280_temperature;BME280_humidity;BME280_pressure;Samples;Min_cycle;Max_cycle;Signal;HPM_P1;HPM_P2
2021/12/31 00:01:21;;;;;;;;;;;6.20;84.70;;;;;;5029017;28;83048;-47
2021/12/31 00:03:48;;;;;;;;;;;6.20;84.70;;;;;;5028801;28;81840;-46
2021/12/31 00:06:14;;;;;;;;;;;6.20;84.60;;;;;;5028789;28;82737;-46
2021/12/31 00:08:39;;;;;;;;;;;6.20;84.90;;;;;;5031280;28;83843;-46
2021/12/31 00:11:05;;;;;;;;;;;6.20;84.90;;;;;;5028625;28;83673;-46
2021/12/31 00:13:30;;;;;;;;;;;6.20;84.80;;;;;;5028565;28;84677;-46
2021/12/31 00:15:56;;;;;;;;;;;6.20;84.80;;;;;;5029016;28;81347;-46
2021/12/31 00:18:22;;;;;;;;;;;6.20;84.80;;;;;;5028670;28;83566;-46
2021/12/31 00:20:47;;;;;;;;;;;6.20;84.60;;;;;;5028382;28;84369;-46
2021/12/31 00:23:15;;;;;;;;;;;6.20;84.70;;;;;;5028036;28;83021;-46
2021/12/31 00:25:42;;;;;;;;;;;6.20;85.00;;;;;;5027622;28;84192;-46
2021/12/31 00:28:08;;;;;;;;;;;6.10;84.80;;;;;;5028522;28;84065;-46
2021/12/31 00:30:34;;;;;;;;;;;6.20;84.80;;;;;;5031336;28;82001;-47
2021/12/31 00:33:01;;;;;;;;;;;6.10;84.70;;;;;;5028362;28;84286;-46
2021/12/31 00:35:31;;;;;;;;;;;6.10;84.80;;;;;;5028495;28;81989;-47
2021/12/31 00:37:56;;;;;;;;;;;6.20;85.00;;;;;;5028414;28;83837;-46
2021/12/31 00:40:22;;;;;;;;;;;6.20;84.70;;;;;;5028375;28;84037;-46
2021/12/31 00:42:48;;;;;;;;;;;6.20;84.50;;;;;;5028117;28;82044;-47
2021/12/31 00:45:15;;;;;;;;;;;6.20;84.50;;;;;;5028419;28;84065;-46
2021/12/31 00:47:41;;;;;;;;;;;6.20;84.60;;;;;;5027183;28;85550;-46
2021/12/31 00:50:07;;;;;;;;;;;6.10;84.60;;;;;;5028319;28;81972;-48
2021/12/31 00:52:33;;;;;;;;;;;6.10;84.60;;;;;;5030680;28;86295;-46
2021/12/31 00:54:59;;;;;;;;;;;6.10;84.60;;;;;;5028234;28;82065;-45
2021/12/31 00:57:24;;;;;;;;;;;6.10;84.50;;;;;;5028064;28;83946;-49
2021/12/31 00:59:50;;;;;;;;;;;6.10;84.70;;;;;;5027728;28;84670;-47
2021/12/31 01:02:17;;;;;;;;;;;6.10;84.60;;;;;;5027921;28;81830;-46
2021/12/31 01:04:43;;;;;;;;;;;6.10;84.70;;;;;;5028416;28;83845;-46
2021/12/31 01:07:09;;;;;;;;;;;6.10;84.60;;;;;;5027769;28;83549;-46
2021/12/31 01:09:34;;;;;;;;;;;6.10;84.50;;;;;;5027492;28;82132;-46
2021/12/31 01:12:01;;;;;;;;;;;6.10;84.40;;;;;;5029268;28;83713;-46
2021/12/31 01:14:34;;;;;;;;;;;6.10;84.50;;;;;;5027708;28;82083;-46
2021/12/31 01:17:03;;;;;;;;;;;6.10;84.60;;;;;;5027758;28;83787;-46
2021/12/31 01:19:48;;;;;;;;;;;6.10;85.20;;;;;;5027549;28;84770;-46
2021/12/31 01:22:14;;;;;;;;;;;6.10;84.60;;;;;;5027560;28;81853;-46
2021/12/31 01:24:39;;;;;;;;;;;6.10;84.60;;;;;;5027676;28;84236;-46
2021/12/31 01:27:05;;;;;;;;;;;6.10;84.50;;;;;;5026801;28;83067;-46
2021/12/31 01:29:30;;;;;;;;;;;6.10;84.50;;;;;;5028046;28;81272;-46
2021/12/31 01:32:14;;;;;;;;;;;6.10;84.60;;;;;;5027517;28;83299;-46
2021/12/31 01:34:40;;;;;;;;;;;6.10;84.70;;;;;;5030083;28;83122;-45
2021/12/31 01:37:06;;;;;;;;;;;6.10;84.70;;;;;;5027011;28;82633;-46
2021/12/31 01:39:32;;;;;;;;;;;6.10;84.70;;;;;;5027309;28;84243;-46
2021/12/31 01:41:59;;;;;;;;;;;6.10;84.70;;;;;;5027353;28;82052;-46
2021/12/31 01:44:29;;;;;;;;;;;6.00;84.70;;;;;;5027392;28;83823;-47
2021/12/31 01:47:00;;;;;;;;;;;6.00;84.70;;;;;;5027093;28;83599;-46
2021/12/31 01:49:33;;;;;;;;;;;6.00;84.80;;;;;;5027031;28;82200;-46
2021/12/31 01:51:59;;;;;;;;;;;6.00;84.80;;;;;;5027260;28;83761;-46
2021/12/31 01:54:24;;;;;;;;;;;6.00;84.70;;;;;;5027422;28;83744;-46
2021/12/31 01:56:51;;;;;;;;;;;6.00;84.90;;;;;;5029864;28;82036;-46
2021/12/31 01:59:17;;;;;;;;;;;6.00;84.80;;;;;;5026911;28;84309;-46
2021/12/31 02:01:44;;;;;;;;;;;6.00;84.90;;;;;;5026307;28;82975;-46
2021/12/31 02:04:10;;;;;;;;;;;6.00;85.10;;;;;;5027223;28;83317;-46
2021/12/31 02:06:35;;;;;;;;;;;6.00;84.90;;;;;;5026770;28;84440;-47
2021/12/31 02:09:03;;;;;;;;;;;6.00;84.70;;;;;;5027057;28;82067;-46
2021/12/31 02:11:29;;;;;;;;;;;6.00;84.70;;;;;;5027157;28;82571;-46
2021/12/31 02:13:55;;;;;;;;;;;6.00;84.70;;;;;;5026815;28;84504;-46
2021/12/31 02:16:21;;;;;;;;;;;6.00;84.80;;;;;;5026750;28;81816;-46
2021/12/31 02:18:47;;;;;;;;;;;6.00;84.70;;;;;;5028835;28;85572;-45
2021/12/31 02:21:13;;;;;;;;;;;5.90;84.70;;;;;;5026586;28;81998;-46
2021/12/31 02:23:44;;;;;;;;;;;5.90;84.90;;;;;;5026842;28;83751;-46
2021/12/31 02:26:10;;;;;;;;;;;5.90;84.90;;;;;;5025029;28;85253;-46
2021/12/31 02:28:36;;;;;;;;;;;5.90;84.90;;;;;;5026653;28;81971;-46
2021/12/31 02:31:03;;;;;;;;;;;5.90;84.80;;;;;;5026641;28;84219;-47
2021/12/31 02:33:30;;;;;;;;;;;5.90;85.00;;;;;;5026330;28;84612;-46
2021/12/31 02:35:55;;;;;;;;;;;6.00;85.00;;;;;;5026707;28;82080;-46
2021/12/31 02:38:21;;;;;;;;;;;5.90;84.90;;;;;;5026660;28;84338;-46
2021/12/31 02:40:46;;;;;;;;;;;5.90;84.90;;;;;;5029290;28;84683;-45
2021/12/31 02:43:12;;;;;;;;;;;5.90;84.90;;;;;;5027025;28;84015;-47
2021/12/31 02:45:40;;;;;;;;;;;5.90;84.90;;;;;;5026379;28;84486;-45
2021/12/31 02:48:06;;;;;;;;;;;5.90;84.90;;;;;;5026502;28;82083;-46
2021/12/31 02:50:38;;;;;;;;;;;5.90;85.00;;;;;;5026190;28;84096;-47
2021/12/31 02:53:05;;;;;;;;;;;5.90;84.90;;;;;;5026413;28;84736;-47
2021/12/31 02:55:31;;;;;;;;;;;5.90;85.00;;;;;;5026250;28;82111;-46
2021/12/31 02:58:00;;;;;;;;;;;5.90;85.10;;;;;;5026230;28;84148;-48
2021/12/31 03:00:26;;;;;;;;;;;5.90;85.00;;;;;;5025934;28;83623;-46
2021/12/31 03:02:52;;;;;;;;;;;5.90;85.00;;;;;;5028851;28;81912;-46
2021/12/31 03:05:18;;;;;;;;;;;5.90;85.00;;;;;;5026157;28;84767;-48
2021/12/31 03:07:46;;;;;;;;;;;5.90;85.20;;;;;;5026660;28;81259;-46
2021/12/31 03:10:12;;;;;;;;;;;5.90;84.90;;;;;;5026445;28;83368;-48
2021/12/31 03:12:39;;;;;;;;;;;5.80;84.80;;;;;;5025887;28;84686;-46
2021/12/31 03:15:05;;;;;;;;;;;5.80;85.00;;;;;;5025419;28;82949;-46
2021/12/31 03:17:31;;;;;;;;;;;5.90;85.10;;;;;;5026078;28;83148;-46
2021/12/31 03:20:08;;;;;;;;;;;5.80;84.90;;;;;;5024570;28;85909;-46
2021/12/31 03:22:34;;;;;;;;;;;5.80;84.90;;;;;;5028796;28;81845;-46
2021/12/31 03:24:59;;;;;;;;;;;5.80;84.90;;;;;;5025799;28;84186;-46
2021/12/31 03:27:25;;;;;;;;;;;5.90;85.00;;;;;;5025503;28;81806;-46
2021/12/31 03:29:51;;;;;;;;;;;5.90;84.70;;;;;;5025700;28;84348;-46
2021/12/31 03:32:16;;;;;;;;;;;5.90;84.90;;;;;;5026096;28;84132;-46
2021/12/31 03:34:42;;;;;;;;;;;5.80;84.70;;;;;;5028286;28;82296;-47
2021/12/31 03:37:07;;;;;;;;;;;5.80;84.60;;;;;;5029164;28;84224;-47
2021/12/31 03:39:33;;;;;;;;;;;5.80;84.80;;;;;;5028505;28;84553;-46
2021/12/31 03:41:58;;;;;;;;;;;5.80;84.80;;;;;;5029216;28;82186;-46
2021/12/31 03:44:24;;;;;;;;;;;5.80;85.00;;;;;;5031521;28;84042;-46
2021/12/31 03:46:49;;;;;;;;;;;5.80;84.90;;;;;;5029091;28;82150;-46
2021/12/31 03:49:15;;;;;;;;;;;5.80;84.70;;;;;;5029326;28;83221;-46
2021/12/31 03:51:40;;;;;;;;;;;5.80;84.80;;;;;;5028782;28;85224;-46
2021/12/31 03:54:06;;;;;;;;;;;5.80;84.70;;;;;;5028988;28;82043;-46
2021/12/31 03:56:33;;;;;;;;;;;5.80;84.80;;;;;;5029589;28;84102;-46
2021/12/31 03:58:59;;;;;;;;;;;5.80;84.80;;;;;;5028763;28;84439;-46
2021/12/31 04:01:25;;;;;;;;;;;5.80;84.80;;;;;;5029092;28;82095;-46
2021/12/31 04:03:51;;;;;;;;;;;5.80;84.80;;;;;;5028459;28;83742;-47
2021/12/31 04:06:16;;;;;;;;;;;5.70;84.70;;;;;;5031375;28;84907;-46
2021/12/31 04:08:42;;;;;;;;;;;5.70;84.70;;;;;;5029028;28;83790;-46
2021/12/31 04:11:10;;;;;;;;;;;5.70;84.80;;;;;;5028573;28;83522;-46
2021/12/31 04:13:35;;;;;;;;;;;5.70;84.80;;;;;;5028757;28;82098;-46
2021/12/31 04:16:01;;;;;;;;;;;5.70;84.60;;;;;;5028971;28;83925;-46
2021/12/31 04:18:26;;;;;;;;;;;5.70;84.80;;;;;;5028450;28;84518;-46
2021/12/31 04:20:55;;;;;;;;;;;5.70;84.90;;;;;;5029082;28;81137;-46
2021/12/31 04:23:28;;;;;;;;;;;5.70;84.90;;;;;;5028717;28;82488;-46
2021/12/31 04:25:55;;;;;;;;;;;5.70;84.90;;;;;;5027928;28;83351;-45
2021/12/31 04:28:20;;;;;;;;;;;5.70;84.80;;;;;;5030206;28;84318;-46
2021/12/31 04:30:46;;;;;;;;;;;5.70;84.70;;;;;;5028621;28;84574;-46
2021/12/31 04:33:11;;;;;;;;;;;5.70;84.80;;;;;;5028606;28;82060;-46
2021/12/31 04:35:37;;;;;;;;;;;5.70;84.60;;;;;;5028373;28;83225;-46
2021/12/31 04:38:02;;;;;;;;;;;5.70;84.70;;;;;;5028108;28;84486;-46
2021/12/31 04:40:28;;;;;;;;;;;5.70;84.80;;;;;;5028254;28;82134;-47
2021/12/31 04:45:38;;;;;;;;;;;5.70;84.70;;;;;;5028934;28;81503;-46
2021/12/31 04:48:03;;;;;;;;;;;5.60;84.80;;;;;;5027986;28;82155;-46
2021/12/31 04:50:29;;;;;;;;;;;5.60;84.70;;;;;;5030983;28;82332;-46
2021/12/31 04:52:55;;;;;;;;;;;5.70;84.60;;;;;;5027388;28;83026;-46
2021/12/31 04:55:20;;;;;;;;;;;5.60;84.60;;;;;;5027862;28;84903;-46
2021/12/31 04:57:48;;;;;;;;;;;5.60;84.50;;;;;;5027830;28;84575;-46
2021/12/31 05:00:14;;;;;;;;;;;5.60;84.60;;;;;;5028124;28;81974;-46
2021/12/31 05:02:40;;;;;;;;;;;5.60;84.70;;;;;;5027936;28;83253;-46
2021/12/31 05:05:06;;;;;;;;;;;5.60;84.50;;;;;;5027937;28;84693;-46
2021/12/31 05:07:31;;;;;;;;;;;5.60;84.60;;;;;;5028001;28;82107;-47
2021/12/31 05:09:57;;;;;;;;;;;5.60;84.50;;;;;;5030976;28;83854;-46
2021/12/31 05:12:27;;;;;;;;;;;5.60;84.20;;;;;;5027892;28;82102;-46
2021/12/31 05:14:53;;;;;;;;;;;5.60;84.30;;;;;;5028019;28;82764;-46
2021/12/31 05:17:18;;;;;;;;;;;5.60;84.50;;;;;;5026973;28;84392;-46
2021/12/31 05:19:45;;;;;;;;;;;5.60;84.60;;;;;;5027978;28;81983;-46
2021/12/31 05:22:14;;;;;;;;;;;5.60;84.50;;;;;;5027752;28;83916;-46
2021/12/31 05:24:40;;;;;;;;;;;5.60;84.50;;;;;;5027275;28;83751;-46
2021/12/31 05:27:06;;;;;;;;;;;5.60;84.50;;;;;;5027177;28;82111;-45
2021/12/31 05:29:32;;;;;;;;;;;5.60;84.00;;;;;;5027496;28;84016;-47
2021/12/31 05:31:57;;;;;;;;;;;5.60;84.20;;;;;;5029980;28;85197;-46
2021/12/31 05:34:23;;;;;;;;;;;5.60;84.40;;;;;;5027971;28;84039;-48
2021/12/31 05:36:48;;;;;;;;;;;5.60;84.40;;;;;;5027201;28;84341;-48
2021/12/31 05:39:14;;;;;;;;;;;5.60;84.30;;;;;;5027552;28;82110;-46
2021/12/31 05:41:40;;;;;;;;;;;5.60;84.20;;;;;;5026792;28;84000;-46
2021/12/31 05:44:06;;;;;;;;;;;5.60;84.30;;;;;;5027202;28;84721;-47
2021/12/31 05:46:32;;;;;;;;;;;5.60;84.10;;;;;;5027425;28;82113;-48
2021/12/31 05:48:57;;;;;;;;;;;5.50;84.10;;;;;;5027415;28;83898;-46
2021/12/31 05:51:26;;;;;;;;;;;5.60;84.00;;;;;;5027032;28;84388;-45
2021/12/31 05:53:52;;;;;;;;;;;5.60;84.20;;;;;;5029846;28;82045;-46
2021/12/31 05:56:17;;;;;;;;;;;5.50;84.30;;;;;;5026380;28;85023;-47
2021/12/31 05:58:43;;;;;;;;;;;5.50;84.10;;;;;;5027878;28;81354;-47
2021/12/31 06:01:08;;;;;;;;;;;5.50;84.40;;;;;;5027290;28;82894;-47
2021/12/31 06:03:34;;;;;;;;;;;5.50;84.00;;;;;;5026872;28;84120;-49
2021/12/31 06:05:59;;;;;;;;;;;5.50;84.20;;;;;;5026413;28;83022;-46
2021/12/31 06:08:25;;;;;;;;;;;5.50;84.10;;;;;;5026921;28;84901;-45
2021/12/31 06:10:50;;;;;;;;;;;5.50;84.20;;;;;;5026657;28;84903;-46
2021/12/31 06:13:16;;;;;;;;;;;5.50;83.70;;;;;;5026741;28;81824;-46
2021/12/31 06:15:42;;;;;;;;;;;5.50;83.70;;;;;;5029409;28;84250;-46
2021/12/31 06:18:08;;;;;;;;;;;5.50;84.00;;;;;;5026956;28;81828;-46
2021/12/31 06:20:34;;;;;;;;;;;5.50;84.10;;;;;;5026849;28;83922;-49
2021/12/31 06:23:00;;;;;;;;;;;5.50;84.00;;;;;;5027208;28;83301;-48
2021/12/31 06:25:26;;;;;;;;;;;5.50;83.80;;;;;;5025784;28;82211;-48
2021/12/31 06:27:51;;;;;;;;;;;5.50;83.70;;;;;;5026499;28;82478;-46
2021/12/31 06:30:17;;;;;;;;;;;5.50;83.80;;;;;;5026163;28;83854;-48
2021/12/31 06:32:42;;;;;;;;;;;5.50;83.60;;;;;;5026559;28;82148;-49
2021/12/31 06:35:08;;;;;;;;;;;5.50;83.70;;;;;;5026587;28;84299;-46
2021/12/31 06:37:34;;;;;;;;;;;5.50;83.70;;;;;;5029119;28;84449;-45
2021/12/31 06:40:05;;;;;;;;;;;5.50;83.70;;;;;;5026641;28;81979;-46
2021/12/31 06:42:31;;;;;;;;;;;5.50;83.90;;;;;;5026514;28;84520;-47
2021/12/31 06:44:56;;;;;;;;;;;5.50;83.70;;;;;;5026722;28;82002;-46
2021/12/31 06:47:22;;;;;;;;;;;5.50;83.70;;;;;;5027022;28;84135;-47
2021/12/31 06:49:47;;;;;;;;;;;5.50;83.80;;;;;;5025020;28;85928;-46
2021/12/31 06:52:13;;;;;;;;;;;5.40;83.70;;;;;;5026411;28;82005;-46
2021/12/31 06:54:38;;;;;;;;;;;5.50;84.00;;;;;;5025548;28;84229;-46
2021/12/31 06:57:04;;;;;;;;;;;5.40;83.90;;;;;;5026106;28;84754;-46
2021/12/31 06:59:30;;;;;;;;;;;5.40;84.00;;;;;;5029034;28;82096;-46
2021/12/31 07:01:57;;;;;;;;;;;5.40;83.80;;;;;;5026120;28;83211;-51
2021/12/31 07:04:23;;;;;;;;;;;5.50;83.80;;;;;;5026343;28;82119;-46
2021/12/31 07:06:48;;;;;;;;;;;5.50;83.90;;;;;;5026063;28;83941;-46
2021/12/31 07:09:14;;;;;;;;;;;5.50;83.70;;;;;;5027543;28;84284;-46
2021/12/31 07:11:39;;;;;;;;;;;5.40;83.80;;;;;;5030122;28;81118;-47
2021/12/31 07:14:05;;;;;;;;;;;5.40;83.90;;;;;;5029649;28;83403;-46
2021/12/31 07:16:30;;;;;;;;;;;5.40;83.90;;;;;;5029396;28;84596;-46
2021/12/31 07:18:56;;;;;;;;;;;5.40;84.00;;;;;;5031800;28;83011;-47
2021/12/31 07:21:21;;;;;;;;;;;5.40;83.90;;;;;;5029357;28;84446;-46
2021/12/31 07:23:47;;;;;;;;;;;5.40;83.90;;;;;;5029433;28;81985;-46
2021/12/31 07:26:13;;;;;;;;;;;5.40;84.00;;;;;;5029479;28;82582;-48
2021/12/31 07:28:38;;;;;;;;;;;5.40;84.00;;;;;;5029371;28;84494;-46
2021/12/31 07:31:06;;;;;;;;;;;5.40;84.00;;;;;;5029288;28;82137;-46
2021/12/31 07:33:32;;;;;;;;;;;5.40;84.00;;;;;;5029371;28;83657;-46
2021/12/31 07:36:00;;;;;;;;;;;5.40;84.00;;;;;;5029803;28;82306;-48
2021/12/31 07:38:33;;;;;;;;;;;5.40;84.00;;;;;;5029277;28;82119;-46
2021/12/31 07:40:59;;;;;;;;;;;5.40;83.90;;;;;;5032193;28;83936;-46
2021/12/31 07:43:25;;;;;;;;;;;5.40;83.90;;;;;;5028522;28;82777;-46
2021/12/31 07:45:51;;;;;;;;;;;5.40;83.90;;;;;;5029179;28;85114;-48
2021/12/31 07:48:17;;;;;;;;;;;5.40;84.00;;;;;;5028973;28;84615;-46
2021/12/31 07:50:42;;;;;;;;;;;5.40;84.00;;;;;;5029479;28;82065;-49
2021/12/31 07:53:08;;;;;;;;;;;5.40;84.20;;;;;;5028778;28;83909;-47
2021/12/31 07:55:34;;;;;;;;;;;5.40;84.20;;;;;;5028862;28;84389;-45
2021/12/31 07:58:00;;;;;;;;;;;5.40;84.30;;;;;;5029318;28;82072;-46
2021/12/31 08:00:25;;;;;;;;;;;5.30;84.20;;;;;;5029392;28;83001;-46
2021/12/31 08:02:53;;;;;;;;;;;5.30;84.30;;;;;;5031545;28;84859;-46
2021/12/31 08:05:18;;;;;;;;;;;5.30;84.30;;;;;;5028758;28;84281;-46
2021/12/31 08:07:44;;;;;;;;;;;5.40;84.40;;;;;;5027602;28;85691;-46
2021/12/31 08:10:09;;;;;;;;;;;5.30;84.30;;;;;;5028923;28;82267;-46
2021/12/31 08:12:35;;;;;;;;;;;5.30;84.30;;;;;;5028713;28;83871;-46
2021/12/31 08:15:01;;;;;;;;;;;5.30;84.30;;;;;;5028501;28;84383;-46
2021/12/31 08:17:27;;;;;;;;;;;5.30;84.20;;;;;;5028835;28;82072;-46
2021/12/31 08:19:52;;;;;;;;;;;5.40;84.30;;;;;;5028346;28;84244;-45
2021/12/31 08:22:18;;;;;;;;;;;5.30;84.20;;;;;;5028085;28;83298;-46
2021/12/31 08:24:43;;;;;;;;;;;5.40;84.30;;;;;;5032010;28;81312;-45
2021/12/31 08:27:09;;;;;;;;;;;5.30;84.30;;;;;;5028006;28;84757;-53
2021/12/31 08:29:34;;;;;;;;;;;5.30;84.40;;;;;;5028485;28;82076;-49
2021/12/31 08:32:00;;;;;;;;;;;5.30;84.30;;;;;;5028137;28;82893;-50
2021/12/31 08:34:25;;;;;;;;;;;5.30;84.20;;;;;;5028206;28;84961;-50
2021/12/31 08:36:51;;;;;;;;;;;5.30;84.20;;;;;;5028249;28;82123;-46
2021/12/31 08:39:16;;;;;;;;;;;5.30;84.30;;;;;;5028490;28;82984;-46
2021/12/31 08:41:42;;;;;;;;;;;5.30;84.50;;;;;;5028065;28;84717;-46
2021/12/31 08:44:08;;;;;;;;;;;5.30;84.50;;;;;;5028240;28;82177;-47
2021/12/31 08:46:34;;;;;;;;;;;5.30;84.50;;;;;;5030708;28;83674;-47
2021/12/31 08:48:59;;;;;;;;;;;5.40;84.40;;;;;;5028573;28;81088;-48
2021/12/31 08:51:25;;;;;;;;;;;5.30;84.70;;;;;;5028018;28;83288;-48
2021/12/31 08:53:51;;;;;;;;;;;5.30;84.50;;;;;;5027879;28;84527;-51
2021/12/31 08:56:17;;;;;;;;;;;5.30;84.70;;;;;;5027722;28;82984;-50
2021/12/31 08:58:42;;;;;;;;;;;5.30;84.80;;;;;;5028438;28;84294;-47
2021/12/31 09:01:08;;;;;;;;;;;5.30;84.60;;;;;;5027992;28;83533;-48
2021/12/31 09:03:33;;;;;;;;;;;5.40;84.50;;;;;;5028267;28;82130;-46
2021/12/31 09:05:59;;;;;;;;;;;5.30;84.60;;;;;;5027908;28;84199;-47
2021/12/31 09:08:24;;;;;;;;;;;5.40;84.40;;;;;;5030236;28;84534;-48
2021/12/31 09:10:50;;;;;;;;;;;5.40;84.30;;;;;;5028058;28;82230;-46
2021/12/31 09:13:16;;;;;;;;;;;5.40;84.40;;;;;;5028109;28;83687;-46
2021/12/31 09:15:42;;;;;;;;;;;5.40;84.40;;;;;;5027964;28;81986;-49
2021/12/31 09:18:07;;;;;;;;;;;5.30;84.50;;;;;;5027805;28;82957;-46
2021/12/31 09:20:33;;;;;;;;;;;5.30;84.60;;;;;;5026874;28;84813;-46
2021/12/31 09:22:58;;;;;;;;;;;5.30;84.60;;;;;;5027573;28;81821;-46
2021/12/31 09:25:24;;;;;;;;;;;5.30;84.60;;;;;;5027162;28;82164;-47
2021/12/31 09:27:49;;;;;;;;;;;5.30;84.70;;;;;;5030069;28;83756;-48
2021/12/31 09:30:15;;;;;;;;;;;5.30;84.60;;;;;;5027705;28;84323;-48
2021/12/31 09:32:42;;;;;;;;;;;5.30;84.70;;;;;;5026523;28;84672;-46
2021/12/31 09:35:08;;;;;;;;;;;5.30;84.80;;;;;;5027462;28;81848;-48
2021/12/31 09:37:33;;;;;;;;;;;5.30;84.90;;;;;;5027943;28;84277;-47
2021/12/31 09:39:59;;;;;;;;;;;5.30;84.90;;;;;;5027111;28;84755;-48
2021/12/31 09:42:25;;;;;;;;;;;5.30;85.00;;;;;;5027328;28;82180;-46
2021/12/31 09:44:50;;;;;;;;;;;5.30;85.00;;;;;;5026857;28;84184;-46
2021/12/31 09:47:16;;;;;;;;;;;5.30;84.90;;;;;;5026910;28;84496;-46
2021/12/31 09:49:42;;;;;;;;;;;5.30;84.90;;;;;;5029937;28;81840;-49
2021/12/31 09:52:09;;;;;;;;;;;5.30;85.00;;;;;;5026918;28;84361;-46
2021/12/31 09:54:35;;;;;;;;;;;5.30;85.10;;;;;;5027239;28;81983;-47
2021/12/31 09:57:02;;;;;;;;;;;5.30;85.20;;;;;;5027376;28;83960;-48
2021/12/31 09:59:28;;;;;;;;;;;5.30;85.20;;;;;;5027164;28;84779;-47
2021/12/31 10:01:55;;;;;;;;;;;5.20;85.40;;;;;;5027473;28;81027;-47
2021/12/31 10:04:22;;;;;;;;;;;5.20;85.30;;;;;;5027044;28;82190;-49
2021/12/31 10:07:06;;;;;;;;;;;5.30;85.30;;;;;;5026681;28;84814;-47
2021/12/31 10:09:32;;;;;;;;;;;5.30;85.30;;;;;;5026529;28;83050;-47
2021/12/31 10:11:58;;;;;;;;;;;5.30;85.30;;;;;;5029482;28;84947;-50
2021/12/31 10:14:36;;;;;;;;;;;5.30;85.30;;;;;;5027021;28;82187;-49
2021/12/31 10:17:02;;;;;;;;;;;5.30;85.60;;;;;;5026938;28;82373;-48
2021/12/31 10:19:27;;;;;;;;;;;5.30;85.70;;;;;;5026571;28;84469;-46
2021/12/31 10:21:54;;;;;;;;;;;5.20;85.70;;;;;;5026929;28;82127;-46
2021/12/31 10:24:40;;;;;;;;;;;5.20;86.00;;;;;;5026802;28;82727;-46
2021/12/31 10:27:08;;;;;;;;;;;5.30;86.00;;;;;;5026104;27;83839;-46
2021/12/31 10:29:34;;;;;;;;;;;5.30;85.90;;;;;;5026842;28;81861;-46
2021/12/31 10:31:59;;;;;;;;;;;5.20;85.70;;;;;;5026330;28;84277;-45
2021/12/31 10:34:26;;;;;;;;;;;5.30;86.20;;;;;;5028618;28;85089;-49
2021/12/31 10:36:52;;;;;;;;;;;5.20;86.00;;;;;;5026799;28;83850;-49
2021/12/31 10:39:19;;;;;;;;;;;5.30;86.40;;;;;;5026398;28;84015;-46
2021/12/31 10:41:48;;;;;;;;;;;5.30;86.20;;;;;;5026718;28;81989;-47
2021/12/31 10:44:14;;;;;;;;;;;5.30;86.00;;;;;;5029763;28;83944;-48
2021/12/31 10:46:40;;;;;;;;;;;5.30;86.40;;;;;;5029728;28;83479;-48
2021/12/31 10:49:09;;;;;;;;;;;5.30;86.40;;;;;;5030191;28;82055;-47
2021/12/31 10:51:47;;;;;;;;;;;5.30;86.70;;;;;;5030555;28;83783;-50
2021/12/31 10:54:18;;;;;;;;;;;5.40;86.50;;;;;;5029963;28;84365;-48
2021/12/31 10:56:44;;;;;;;;;;;5.40;86.70;;;;;;5032867;28;82091;-50
2021/12/31 10:59:10;;;;;;;;;;;5.40;86.60;;;;;;5029055;28;84147;-49
2021/12/31 11:01:35;;;;;;;;;;;5.40;86.30;;;;;;5029913;28;82125;-49
2021/12/31 11:04:01;;;;;;;;;;;5.40;86.80;;;;;;5029887;28;83887;-46
2021/12/31 11:06:26;;;;;;;;;;;5.40;86.70;;;;;;5029861;28;84537;-47
2021/12/31 11:08:54;;;;;;;;;;;5.40;86.80;;;;;;5029833;28;82099;-47
2021/12/31 11:11:21;;;;;;;;;;;5.40;87.00;;;;;;5029859;28;84057;-46
2021/12/31 11:13:47;;;;;;;;;;;5.40;86.90;;;;;;5029352;28;84366;-49
2021/12/31 11:16:13;;;;;;;;;;;5.40;86.80;;;;;;5030073;28;81208;-48
2021/12/31 11:18:40;;;;;;;;;;;5.40;87.20;;;;;;5032247;28;83589;-47
2021/12/31 11:21:08;;;;;;;;;;;5.40;87.00;;;;;;5029762;28;82065;-46
2021/12/31 11:23:34;;;;;;;;;;;5.40;86.90;;;;;;5029091;28;82935;-47
2021/12/31 11:26:00;;;;;;;;;;;5.40;86.80;;;;;;5028821;28;84299;-49
2021/12/31 11:28:40;;;;;;;;;;;5.50;87.00;;;;;;5029189;28;81909;-48
2021/12/31 11:31:18;;;;;;;;;;;5.50;87.10;;;;;;5029715;28;83028;-47
2021/12/31 11:34:10;;;;;;;;;;;5.50;87.20;;;;;;5029117;28;84177;-47
2021/12/31 11:36:57;;;;;;;;;;;5.50;87.10;;;;;;5029210;28;81851;-48
2021/12/31 11:39:27;;;;;;;;;;;5.50;87.20;;;;;;5032040;28;83874;-46
2021/12/31 11:41:53;;;;;;;;;;;5.40;87.30;;;;;;5029981;28;81359;-46
2021/12/31 11:44:20;;;;;;;;;;;5.50;87.40;;;;;;5029538;28;81830;-49
2021/12/31 11:46:47;;;;;;;;;;;5.50;87.30;;;;;;5029082;28;84454;-48
2021/12/31 11:49:19;;;;;;;;;;;5.50;87.40;;;;;;5028737;28;83019;-49
2021/12/31 11:52:05;;;;;;;;;;;5.50;87.40;;;;;;5029247;28;84028;-47
2021/12/31 11:54:31;;;;;;;;;;;5.50;87.50;;;;;;5028254;28;84540;-48
2021/12/31 11:57:00;;;;;;;;;;;5.50;87.40;;;;;;5028949;28;82066;-49
2021/12/31 11:59:26;;;;;;;;;;;5.50;87.50;;;;;;5029000;28;83701;-46
2021/12/31 12:01:52;;;;;;;;;;;5.50;87.50;;;;;;5031524;28;84549;-46
2021/12/31 12:04:18;;;;;;;;;;;5.50;87.50;;;;;;5029005;28;83658;-48
2021/12/31 12:06:53;;;;;;;;;;;5.50;87.50;;;;;;5029115;28;83510;-48
2021/12/31 12:09:18;;;;;;;;;;;5.50;87.50;;;;;;5029023;28;82060;-46
2021/12/31 12:11:59;;;;;;;;;;;5.50;87.40;;;;;;5028883;28;83993;-47
2021/12/31 12:14:28;;;;;;;;;;;5.60;87.50;;;;;;5027691;28;85216;-50
2021/12/31 12:16:57;;;;;;;;;;;5.60;87.50;;;;;;5028777;28;82064;-50
2021/12/31 12:19:43;;;;;;;;;;;5.50;87.70;;;;;;5028747;28;84001;-48
2021/12/31 12:22:08;;;;;;;;;;;5.50;87.60;;;;;;5028181;27;84483;-50
2021/12/31 12:24:35;;;;;;;;;;;5.60;87.70;;;;;;5031242;28;82084;-49
2021/12/31 12:27:01;;;;;;;;;;;5.50;87.50;;;;;;5027863;28;84457;-48
2021/12/31 12:29:27;;;;;;;;;;;5.50;87.70;;;;;;5028479;28;82157;-49
2021/12/31 12:32:08;;;;;;;;;;;5.50;87.60;;;;;;5029148;28;84045;-48
2021/12/31 12:34:33;;;;;;;;;;;5.60;87.60;;;;;;5028379;28;84419;-49
2021/12/31 12:37:00;;;;;;;;;;;5.60;87.70;;;;;;5027050;28;82098;-49
2021/12/31 12:39:26;;;;;;;;;;;5.60;87.60;;;;;;5027790;28;84114;-46
2021/12/31 12:41:51;;;;;;;;;;;5.60;87.60;;;;;;5027988;28;84274;-49
2021/12/31 12:44:17;;;;;;;;;;;5.60;87.60;;;;;;5027586;28;81822;-46
2021/12/31 12:47:09;;;;;;;;;;;5.60;88.80;;;;;;5030904;28;82108;-46
2021/12/31 12:49:35;;;;;;;;;;;5.70;89.10;;;;;;5025825;27;81978;-47
2021/12/31 12:52:10;;;;;;;;;;;5.70;89.80;;;;;;5027986;28;83773;-47
2021/12/31 12:54:36;;;;;;;;;;;5.70;89.80;;;;;;5027790;28;84300;-47
2021/12/31 12:57:03;;;;;;;;;;;5.70;89.90;;;;;;5028562;28;81401;-47
2021/12/31 12:59:28;;;;;;;;;;;5.70;89.90;;;;;;5028083;28;83162;-44
2021/12/31 13:01:54;;;;;;;;;;;5.80;90.00;;;;;;5027234;28;84585;-43
2021/12/31 13:04:23;;;;;;;;;;;5.80;90.10;;;;;;5026767;28;83063;-46
2021/12/31 13:06:55;;;;;;;;;;;5.80;89.50;;;;;;5026430;28;85170;-46
2021/12/31 13:09:23;;;;;;;;;;;5.80;90.00;;;;;;5030426;28;84856;-47
2021/12/31 13:11:50;;;;;;;;;;;6.00;88.90;;;;;;5027922;28;83977;-47
2021/12/31 13:14:17;;;;;;;;;;;6.00;88.40;;;;;;5027664;28;84455;-47
2021/12/31 13:16:43;;;;;;;;;;;6.00;88.30;;;;;;5027832;28;82071;-47
2021/12/31 13:19:10;;;;;;;;;;;6.00;88.30;;;;;;5027676;28;84116;-46
2021/12/31 13:21:35;;;;;;;;;;;6.00;87.90;;;;;;5028286;28;83873;-48
2021/12/31 13:24:01;;;;;;;;;;;6.00;87.80;;;;;;5027796;28;82042;-48
2021/12/31 13:26:28;;;;;;;;;;;6.00;87.80;;;;;;5027397;28;84281;-46
2021/12/31 13:29:00;;;;;;;;;;;5.90;87.90;;;;;;5026767;28;84278;-47
2021/12/31 13:31:44;;;;;;;;;;;5.90;87.80;;;;;;5030030;28;81838;-47
2021/12/31 13:34:15;;;;;;;;;;;6.00;88.00;;;;;;5027360;28;84541;-46
2021/12/31 13:36:46;;;;;;;;;;;5.90;87.70;;;;;;5027534;28;82119;-49
2021/12/31 13:39:13;;;;;;;;;;;6.00;87.70;;;;;;5027765;28;81867;-46
2021/12/31 13:41:58;;;;;;;;;;;6.00;87.60;;;;;;5027243;28;83683;-46
2021/12/31 13:44:27;;;;;;;;;;;6.00;87.60;;;;;;5027310;28;81875;-46
2021/12/31 13:47:00;;;;;;;;;;;5.90;87.60;;;;;;5028023;28;83725;-46
2021/12/31 13:49:26;;;;;;;;;;;5.90;87.70;;;;;;5027403;28;84540;-47
2021/12/31 13:51:51;;;;;;;;;;;5.90;87.90;;;;;;5030086;28;81958;-46
2021/12/31 13:54:18;;;;;;;;;;;5.90;87.80;;;;;;5026491;28;84546;-46
2021/12/31 13:56:46;;;;;;;;;;;5.90;87.70;;;;;;5027246;28;82136;-46
2021/12/31 13:59:22;;;;;;;;;;;5.90;88.00;;;;;;5027184;28;83967;-46
2021/12/31 14:02:02;;;;;;;;;;;5.90;88.00;;;;;;5026959;28;84270;-47
2021/12/31 14:04:28;;;;;;;;;;;5.90;88.10;;;;;;5027138;28;81919;-46
2021/12/31 14:06:59;;;;;;;;;;;5.90;88.10;;;;;;5026929;28;84186;-46
2021/12/31 14:09:25;;;;;;;;;;;5.90;88.20;;;;;;5026620;28;84381;-46
2021/12/31 14:11:52;;;;;;;;;;;5.90;87.90;;;;;;5027373;28;80985;-46
2021/12/31 14:14:18;;;;;;;;;;;5.90;87.90;;;;;;5029813;28;83285;-46
2021/12/31 14:16:43;;;;;;;;;;;5.90;87.90;;;;;;5026823;28;82057;-47
2021/12/31 14:19:09;;;;;;;;;;;6.00;87.70;;;;;;5025912;28;83171;-47
2021/12/31 14:21:34;;;;;;;;;;;6.00;87.50;;;;;;5026672;28;84708;-46
2021/12/31 14:24:00;;;;;;;;;;;6.00;87.60;;;;;;5026814;28;82143;-45
2021/12/31 14:26:25;;;;;;;;;;;6.00;87.60;;;;;;5025962;28;83949;-47
2021/12/31 14:28:52;;;;;;;;;;;6.00;87.60;;;;;;5026729;28;84223;-46
2021/12/31 14:31:18;;;;;;;;;;;6.00;87.70;;;;;;5026736;28;82139;-47
2021/12/31 14:33:43;;;;;;;;;;;6.00;87.60;;;;;;5026724;28;84014;-47